Terminal Aerodrome Forecast
Issued by NWS Quad Cities IA IL

Home | Current Version | Previous Version | Graphics & Text | Print | Product List | Glossary On
Versions: 1 2 3 4 5 6 7 8 9 10 11 12 13 14 15 16 17 18 19 20 21 22 23 24 25 26
593
FTUS43 KDVN 221735
TAFMLI
TAF
KMLI 221735Z 2218/2318 19010G18KT P6SM SCT035
     FM230000 19010KT P6SM SCT035
     FM230500 22009KT 3SM TSRA BKN035CB
     FM230800 31011KT P6SM BKN030
     FM231400 35012KT P6SM SCT150=

USA.gov is the U.S. government's official web portal to all federal, state and local government web resources and services.